Las Vegas, NM

12:06 AM MDT on October 25, 2014 (GMT -0600)
Las Vegas Municipal | Change Station
CLOSE
Current Station
Airport
Location: Las Vegas,
Elevation: 6877 ft
Nearby Weather Stations

Elev 6877 ft 35.65 °N, 105.14 °W | Updated 13 minutes ago

Clear
Clear
50 °F
Feels Like 50 °F
N
7
Wind Variable Wind from North

Today
High -- | Low -- °F
--% Chance of Precip.
Yesterday
High -- | Low -- °F
Precip. -- in
7:16 AM 6:12 PM
New Moon, 2% visible
Pressure 30.05 in
Visibility 10.0 miles
Clouds Clear
Dew Point 23 °F
Humidity 35%
Rainfall 0.00 in
Snow Depth Not available.
UV 0 out of 12
Pollen 3.50 out of 12
Air Quality Not available.
Flu Activity Sporadic
METAR KLVS 250553Z AUTO 36006KT 10SM CLR 10/M05 A3033 RMK AO2 SLP174 T01001050 10217 20078 50002

More Conditions Fewer Conditions

Pressure 30.05 in
Visibility 10.0 miles
Clouds Clear
Dew Point 23 °F
Humidity 35%
Rainfall 0.00 in
Snow Depth Not available.
UV 0 out of 12
Pollen 3.50 out of 12
Air Quality Not available.
Flu Activity Sporadic
METAR KLVS 250553Z AUTO 36006KT 10SM CLR 10/M05 A3033 RMK AO2 SLP174 T01001050 10217 20078 50002

More Conditions Fewer Conditions

10-Day Weather Forecast

Almanac

Astronomy

Oct. 25, 2014 Rise Set
Actual Time 7:16 AM MDT 6:12 PM MDT
Civil Twilight 6:50 AM MDT 6:39 PM MDT
Nautical Twilight 6:20 AM MDT 7:08 PM MDT
Astronomical Twilight 5:50 AM MDT 7:38 PM MDT
Moon 8:55 AM MDT 7:41 PM MDT
Length of Visible Light 11h 48m
Length of Day
10h 56m
Tomorrow will be 2m 3s shorter.
New Moon, 2% of the Moon is Illuminated
Today
New Moon
Oct 30
First Quarter
Nov 6
Full
Nov 14
Last Quarter
Nov 22
New

Today's Extremes

State Highs State Lows

Community

WunderPhotos

Upload Photos

1,764,785 photos uploaded!

Nearby

Snow Depth

Station Depth Elevation
Wesner Springs 0 in 11120 ft
Elk Cabin 0 in 8210 ft
Santa Fe 1 in 11445 ft
Gallegos Peak 0 in 9800 ft
Quemazon 0 in 9500 ft

Earthquake Activity

City Distance Mag. Time & Date
No recent earthquake activity has been reported nearby.
Minimum magnitude displayed is 2.5.

Coastal Water Temperatures

Place Temperature
No Stations Reporting

Nearby Weather Stations